Time;durP1;ratioP1;P1;durP2;ratioP2;P2;SDS_P1;SDS_P2;PMS_P1;PMS_P2;Temp;Humidity;BMP_temperature;BMP_pressure;BME280_temperature;BME280_humidity;BME280_pressure;Samples;Min_cycle;Max_cycle;Signal;HPM_P1;HPM_P2
2022/03/29 00:02:39;;;;;;;36.75;25.60;;;;;;;7.15;59.57;97843.69;10333489;28;20113;-61
2022/03/29 00:07:38;;;;;;;35.35;23.75;;;;;;;7.18;60.11;97848.03;10333732;28;20060;-61
2022/03/29 00:12:38;;;;;;;37.95;23.65;;;;;;;7.14;60.17;97835.91;10332916;28;20038;-61
2022/03/29 00:17:37;;;;;;;37.65;23.00;;;;;;;7.08;60.92;97840.97;10332822;28;20087;-61
2022/03/29 00:22:36;;;;;;;42.42;24.98;;;;;;;7.09;60.85;97824.66;10332678;28;20514;-61
2022/03/29 00:27:35;;;;;;;42.85;25.38;;;;;;;7.04;60.96;97827.19;10332688;28;20503;-61
2022/03/29 00:32:34;;;;;;;40.80;24.88;;;;;;;7.02;62.20;97821.13;10331959;28;20067;-61
2022/03/29 00:37:33;;;;;;;44.35;24.25;;;;;;;6.95;62.05;97799.53;10332263;28;20041;-61
2022/03/29 00:42:32;;;;;;;37.40;24.02;;;;;;;7.04;62.37;97814.28;10331094;28;20127;-61
2022/03/29 00:47:31;;;;;;;36.80;23.27;;;;;;;6.85;61.68;97771.03;10331729;28;20092;-61
2022/03/29 00:52:31;;;;;;;40.38;24.02;;;;;;;6.97;62.47;97786.66;10331922;28;20529;-61
2022/03/29 00:57:32;;;;;;;35.58;20.20;;;;;;;6.75;62.65;97739.94;10331435;28;20068;-61
2022/03/29 01:02:31;;;;;;;39.60;23.25;;;;;;;7.05;63.53;97785.03;10331626;28;20064;-61
2022/03/29 01:07:30;;;;;;;30.15;17.58;;;;;;;7.16;63.25;97783.47;10331488;28;20040;-61
2022/03/29 01:12:31;;;;;;;28.15;17.08;;;;;;;7.18;62.21;97753.41;10330737;28;20029;-61
2022/03/29 01:17:40;;;;;;;29.70;17.75;;;;;;;7.35;62.08;97760.47;10331039;28;20454;-61
2022/03/29 01:22:45;;;;;;;26.90;17.30;;;;;;;7.37;62.33;97748.47;10330576;28;20460;-61
2022/03/29 01:27:45;;;;;;;72.45;40.65;;;;;;;7.53;61.74;97752.13;10330835;28;20068;-61
2022/03/29 01:32:49;;;;;;;96.55;57.47;;;;;;;6.64;61.44;97585.94;10330620;28;20473;-61
2022/03/29 01:37:49;;;;;;;50.33;29.35;;;;;;;7.45;60.79;97709.00;10330683;28;20072;-61
2022/03/29 01:42:55;;;;;;;41.20;24.23;;;;;;;7.58;60.76;97724.63;10330650;28;20060;-61
2022/03/29 01:47:54;;;;;;;29.88;18.55;;;;;;;7.48;61.08;97723.66;10333868;28;20077;-61
2022/03/29 01:52:53;;;;;;;35.15;19.80;;;;;;;7.23;61.95;97692.38;10338496;28;20075;-61
2022/03/29 01:57:53;;;;;;;33.42;20.98;;;;;;;7.27;61.35;97703.59;10338434;28;20034;-61
2022/03/29 02:02:52;;;;;;;;;;;;;;;7.24;61.96;97696.69;10338436;28;20549;-61
2022/03/29 02:07:51;;;;;;;34.00;21.05;;;;;;;6.64;62.43;97604.84;10338277;28;19952;-61
2022/03/29 02:12:51;;;;;;;37.15;24.15;;;;;;;6.87;62.97;97681.63;10337579;28;20112;-61
2022/03/29 02:17:50;;;;;;;32.58;21.75;;;;;;;6.50;63.21;97614.13;10337477;28;20072;-61
2022/03/29 02:22:50;;;;;;;33.92;21.10;;;;;;;6.72;63.96;97672.84;10337283;28;20056;-61
2022/03/29 02:27:49;;;;;;;31.35;22.98;;;;;;;6.25;63.82;97576.84;10337313;28;20076;-61
2022/03/29 02:32:48;;;;;;;34.28;22.02;;;;;;;6.74;63.73;97662.56;10336951;28;20065;-61
2022/03/29 02:37:47;;;;;;;61.38;41.17;;;;;;;6.46;63.06;97627.81;10336714;28;20067;-61
2022/03/29 02:42:49;;;;;;;35.15;23.65;;;;;;;6.62;63.54;97640.06;10336324;28;20061;-61
2022/03/29 02:47:53;;;;;;;29.05;18.98;;;;;;;6.67;63.39;97666.75;10336205;28;20092;-61
2022/03/29 02:53:01;;;;;;;26.83;17.52;;;;;;;6.70;63.42;97669.41;10336352;28;20061;-61
2022/03/29 02:58:00;;;;;;;28.30;16.17;;;;;;;6.52;63.62;97635.63;10333918;28;20069;-61
2022/03/29 03:03:00;;;;;;;30.50;17.27;;;;;;;6.40;62.59;97595.97;10335804;28;20057;-61
2022/03/29 03:07:59;;;;;;;33.90;19.92;;;;;;;6.74;62.58;97655.69;10335571;28;20065;-61
2022/03/29 03:12:58;;;;;;;;;;;;;;;6.83;62.56;97650.63;10335895;28;20487;-61
2022/03/29 03:17:58;;;;;;;43.05;21.88;;;;;;;6.70;62.62;97628.13;10335270;28;19955;-61
2022/03/29 03:22:56;;;;;;;;;;;;;;;6.82;62.78;97658.38;10335512;28;20767;-61
2022/03/29 03:27:55;;;;;;;41.05;21.52;;;;;;;6.58;63.30;97628.81;10334818;28;19998;-61
2022/03/29 03:32:54;;;;;;;46.67;22.27;;;;;;;6.49;63.36;97628.72;10334816;28;20033;-61
2022/03/29 03:37:53;;;;;;;41.28;19.90;;;;;;;6.42;62.77;97605.41;10334666;28;20065;-61
2022/03/29 03:42:52;;;;;;;33.80;18.48;;;;;;;6.68;63.05;97645.31;10334406;28;20402;-61
2022/03/29 03:47:51;;;;;;;25.25;15.50;;;;;;;6.27;62.32;97560.56;10333914;28;20045;-61
2022/03/29 03:52:52;;;;;;;26.77;16.48;;;;;;;6.81;62.59;97654.91;10333777;28;20065;-61
2022/03/29 03:57:50;;;;;;;29.70;18.38;;;;;;;6.72;62.15;97622.97;10333852;28;20064;-61
2022/03/29 04:02:50;;;;;;;37.17;24.77;;;;;;;6.80;62.21;97648.03;10333266;28;20028;-61
2022/03/29 04:07:49;;;;;;;46.40;25.83;;;;;;;6.77;62.19;97635.09;10332751;28;20057;-61
2022/03/29 04:12:48;;;;;;;40.53;23.15;;;;;;;6.74;61.92;97629.03;10332661;28;20018;-61
2022/03/29 04:17:47;;;;;;;36.83;23.73;;;;;;;6.23;61.59;97543.31;10332408;28;20430;-61
2022/03/29 04:22:46;;;;;;;30.98;21.38;;;;;;;6.93;61.38;97653.31;10332576;28;20056;-61
2022/03/29 04:27:45;;;;;;;32.00;19.92;;;;;;;6.97;61.38;97657.69;10332317;28;20034;-61
2022/03/29 04:32:44;;;;;;;29.15;19.67;;;;;;;7.06;61.44;97644.88;10305309;28;20076;-61
2022/03/29 04:37:43;;;;;;;32.95;19.77;;;;;;;6.44;60.99;97504.06;10332359;28;20109;-61
2022/03/29 04:42:47;;;;;;;27.52;16.27;;;;;;;7.28;60.29;97620.16;10332372;28;20064;-60
2022/03/29 04:47:47;;;;;;;24.63;14.35;;;;;;;6.86;59.19;97520.84;10329893;28;20503;-60
2022/03/29 04:52:46;;;;;;;23.85;15.30;;;;;;;7.80;58.26;97646.50;10322132;28;20530;-60
2022/03/29 04:57:47;;;;;;;26.65;14.38;;;;;;;8.06;58.16;97645.81;10331002;28;20056;-60
2022/03/29 05:02:47;;;;;;;34.25;17.15;;;;;;;7.87;56.57;97590.53;10331348;28;20061;-60
2022/03/29 05:07:46;;;;;;;30.13;17.98;;;;;;;7.52;56.53;97505.97;10339710;28;20341;-60
2022/03/29 05:12:47;;;;;;;28.52;18.35;;;;;;;8.18;55.59;97585.59;10328147;28;20053;-60
2022/03/29 05:17:46;;;;;;;33.40;19.40;;;;;;;8.63;55.72;97636.69;10328652;28;20079;-60
2022/03/29 05:22:51;;;;;;;41.97;22.73;;;;;;;8.88;54.87;97640.25;10326094;28;20063;-60
2022/03/29 05:27:51;;;;;;;38.60;23.33;;;;;;;9.09;54.79;97641.16;10324990;28;20065;-60
2022/03/29 05:32:51;;;;;;;42.15;22.75;;;;;;;9.02;54.09;97587.66;10325858;28;20061;-60
2022/03/29 05:37:50;;;;;;;40.65;21.67;;;;;;;9.53;53.91;97635.25;10327723;28;20064;-60
2022/03/29 05:42:49;;;;;;;35.00;21.27;;;;;;;9.82;53.07;97637.00;10324708;28;20146;-60
2022/03/29 05:53:06;;;;;;;22.90;15.68;;;;;;;9.90;50.13;97534.19;10328169;28;20064;-60
2022/03/29 05:58:05;;;;;;;32.50;19.58;;;;;;;10.80;49.79;97621.25;10304597;28;20073;-60
2022/03/29 06:03:04;;;;;;;20.98;12.18;;;;;;;11.06;45.97;97602.09;10326086;28;20032;-60
2022/03/29 06:08:03;;;;;;;19.58;8.63;;;;;;;11.65;45.85;97617.31;10328535;28;20499;-60
2022/03/29 06:13:02;;;;;;;16.90;8.93;;;;;;;11.87;43.83;97578.13;10328873;28;20096;-60
2022/03/29 06:18:01;;;;;;;14.45;8.43;;;;;;;12.46;44.08;97601.84;10328366;28;20056;-61
2022/03/29 06:23:00;;;;;;;19.55;10.63;;;;;;;12.69;41.31;97610.25;10328798;28;20061;-61
2022/03/29 06:27:59;;;;;;;16.48;7.60;;;;;;;12.95;42.14;97609.09;10328312;28;20029;-61
2022/03/29 06:32:58;;;;;;;16.80;9.38;;;;;;;13.19;40.58;97607.91;10325695;28;20105;-61
2022/03/29 06:37:59;;;;;;;19.58;8.45;;;;;;;13.34;40.90;97607.69;10335275;28;20450;-61
2022/03/29 06:42:58;;;;;;;15.57;8.90;;;;;;;12.77;40.29;97473.94;10335467;28;20057;-61
2022/03/29 06:47:58;;;;;;;14.98;7.82;;;;;;;13.53;40.05;97587.41;10335395;28;20116;-61
2022/03/29 06:52:57;;;;;;;17.30;8.30;;;;;;;13.80;39.61;97593.13;10326567;28;20068;-61
2022/03/29 06:57:56;;;;;;;17.83;8.55;;;;;;;13.98;40.00;97584.09;10334488;28;20479;-61
2022/03/29 07:02:55;;;;;;;13.95;8.50;;;;;;;14.12;39.44;97579.50;10335113;28;20407;-61
2022/03/29 07:07:54;;;;;;;15.63;8.13;;;;;;;14.10;39.40;97541.28;10334383;28;20108;-61
2022/03/29 07:13:01;;;;;;;18.90;9.15;;;;;;;14.59;37.97;97579.50;10335846;28;20064;-61
2022/03/29 07:18:00;;;;;;;13.90;8.10;;;;;;;14.79;38.58;97572.16;10334496;28;20419;-61
2022/03/29 07:22:59;;;;;;;14.13;7.60;;;;;;;15.01;38.02;97572.59;10334739;28;20061;-61
2022/03/29 07:27:58;;;;;;;;;;;;;;;15.17;36.43;97559.16;10334829;28;20077;-61
2022/03/29 07:32:58;;;;;;;13.98;8.75;;;;;;;15.26;36.40;97564.19;10292399;28;19909;-61
2022/03/29 07:37:58;;;;;;;22.00;9.02;;;;;;;15.43;36.16;97555.94;10294406;28;20072;-61
2022/03/29 07:42:58;;;;;;;16.77;9.15;;;;;;;15.05;36.02;97466.22;10313904;28;20503;-61
2022/03/29 07:47:57;;;;;;;15.18;7.65;;;;;;;15.63;36.42;97538.00;10332533;28;20450;-61
2022/03/29 07:52:59;;;;;;;17.27;8.52;;;;;;;15.78;36.30;97541.13;10329404;28;20057;-61
2022/03/29 07:57:58;;;;;;;14.35;6.63;;;;;;;15.73;34.78;97535.16;10328623;28;20061;-61
2022/03/29 08:02:58;;;;;;;;;;;;;;;15.86;35.46;97531.38;10333095;28;20029;-61
2022/03/29 08:07:58;;;;;;;18.80;7.90;;;;;;;15.80;35.56;97497.53;10331739;28;19948;-60
2022/03/29 08:12:59;;;;;;;23.63;7.70;;;;;;;15.31;35.17;97396.75;10331937;28;20455;-61
2022/03/29 08:17:59;;;;;;;44.75;10.32;;;;;;;16.12;34.84;97520.22;10332191;28;20065;-61
2022/03/29 08:23:01;;;;;;;20.13;7.45;;;;;;;15.94;34.35;97469.22;10332275;28;20060;-61
2022/03/29 08:28:01;;;;;;;21.52;7.57;;;;;;;16.35;34.26;97521.34;10332003;28;20560;-61
2022/03/29 08:33:00;;;;;;;26.65;8.02;;;;;;;16.56;33.82;97504.16;10332578;28;20060;-61
2022/03/29 08:37:59;;;;;;;16.95;6.55;;;;;;;16.62;32.75;97506.59;10331346;28;20065;-61
2022/03/29 08:43:00;;;;;;;24.88;8.55;;;;;;;16.79;33.61;97504.34;10331374;28;20060;-61
2022/03/29 08:48:00;;;;;;;22.83;10.48;;;;;;;16.98;33.70;97491.59;10330890;28;20069;-61
2022/03/29 08:52:59;;;;;;;21.25;8.82;;;;;;;17.24;33.62;97476.78;10330686;28;20068;-61
2022/03/29 08:57:58;;;;;;;;;;;;;;;17.46;33.33;97483.03;10330207;28;20072;-61
2022/03/29 09:02:57;;;;;;;15.30;6.80;;;;;;;17.46;32.77;97451.56;10330438;28;19948;-61
2022/03/29 09:08:01;;;;;;;;;;;;;;;17.77;32.16;97467.16;10330743;28;20460;-61
2022/03/29 09:13:23;;;;;;;17.00;6.97;;;;;;;17.87;31.17;97451.06;10329866;28;20414;-61
2022/03/29 09:18:22;;;;;;;15.55;5.90;;;;;;;18.14;31.75;97442.22;10330691;28;20084;-61
2022/03/29 09:23:22;;;;;;;16.98;7.55;;;;;;;18.01;29.70;97398.09;10330565;28;20064;-61
2022/03/29 09:28:21;;;;;;;14.38;6.85;;;;;;;17.75;29.96;97337.75;10330267;28;20072;-61
2022/03/29 09:33:28;;;;;;;16.92;7.22;;;;;;;18.49;29.98;97429.53;10315008;28;20484;-61
2022/03/29 09:38:37;;;;;;;18.63;6.68;;;;;;;18.61;29.96;97417.72;10322839;28;20072;-61
2022/03/29 09:43:36;;;;;;;;;;;;;;;18.60;29.84;97411.59;10317207;28;20060;-61
2022/03/29 09:48:38;;;;;;;15.70;6.10;;;;;;;18.56;29.41;97398.63;10325950;28;19916;-61
2022/03/29 09:53:48;;;;;;;13.30;6.18;;;;;;;18.68;29.15;97385.03;10330099;28;20522;-61
2022/03/29 09:59:01;;;;;;;20.65;6.60;;;;;;;18.26;26.75;97308.72;10329908;28;20083;-61
2022/03/29 10:04:02;;;;;;;15.38;6.60;;;;;;;18.25;28.33;97375.31;10330104;28;20045;-61
2022/03/29 10:14:31;;;;;;;21.65;7.15;;;;;;;18.19;28.54;97348.34;10336625;28;20068;-61
2022/03/29 10:19:31;;;;;;;22.95;7.15;;;;;;;18.25;28.69;97356.94;10337120;28;20119;-61
2022/03/29 10:24:31;;;;;;;16.92;7.28;;;;;;;18.49;28.92;97355.97;10337204;28;20060;-61
2022/03/29 10:29:30;;;;;;;27.95;7.22;;;;;;;18.47;27.79;97342.03;10336952;28;20495;-61
2022/03/29 10:34:39;;;;;;;14.57;6.20;;;;;;;18.47;27.32;97335.94;10337010;28;20084;-61
2022/03/29 10:39:45;;;;;;;20.85;7.07;;;;;;;18.46;27.02;97286.94;10336864;28;20064;-61
2022/03/29 10:45:17;;;;;;;17.88;5.85;;;;;;;18.68;26.74;97318.47;10336454;28;20067;-61
2022/03/29 10:50:16;;;;;;;19.73;7.50;;;;;;;18.83;27.18;97317.88;10336519;28;20083;-61
2022/03/29 10:55:18;;;;;;;21.92;6.68;;;;;;;19.06;27.96;97316.03;10335990;28;20064;-61
2022/03/29 11:00:18;;;;;;;17.67;6.30;;;;;;;19.19;26.40;97297.06;10335944;28;20447;-61
2022/03/29 11:05:17;;;;;;;19.58;7.15;;;;;;;19.37;26.56;97290.16;10338594;28;20045;-61
2022/03/29 11:10:19;;;;;;;13.60;5.97;;;;;;;19.63;27.09;97289.03;10339514;28;20025;-61
2022/03/29 11:15:24;;;;;;;17.67;6.95;;;;;;;20.02;26.61;97282.84;10338861;28;20064;-61
2022/03/29 11:20:32;;;;;;;19.58;6.03;;;;;;;20.20;23.66;97269.75;10337580;28;20030;-61
2022/03/29 11:25:40;;;;;;;14.68;5.93;;;;;;;20.03;23.45;97246.84;10338478;28;20025;-61
2022/03/29 11:30:39;;;;;;;17.73;6.43;;;;;;;20.30;25.30;97257.81;10338336;28;20061;-61
2022/03/29 11:35:39;;;;;;;16.23;6.22;;;;;;;20.59;25.76;97240.63;10337993;28;20064;-61
2022/03/29 11:40:39;;;;;;;18.75;6.53;;;;;;;20.67;24.61;97230.56;10337952;28;20018;-61
2022/03/29 11:45:44;;;;;;;21.50;7.30;;;;;;;20.77;23.99;97235.38;10337692;28;20082;-61
2022/03/29 11:50:54;;;;;;;15.68;5.88;;;;;;;20.91;22.65;97227.59;10337788;28;20472;-61
2022/03/29 11:56:00;;;;;;;18.20;5.90;;;;;;;21.18;23.74;97211.28;10337466;28;20061;-61
2022/03/29 12:01:02;;;;;;;17.23;5.70;;;;;;;20.83;22.14;97163.88;10335930;28;20033;-61
2022/03/29 12:06:25;;;;;;;16.05;5.75;;;;;;;20.89;22.36;97171.44;10334447;28;20049;-61
2022/03/29 12:11:33;;;;;;;14.20;5.55;;;;;;;21.42;22.21;97196.81;10333823;28;20480;-61
2022/03/29 12:16:38;;;;;;;16.23;5.80;;;;;;;21.73;22.48;97205.72;10333432;28;20068;-61
2022/03/29 12:21:37;;;;;;;13.77;5.45;;;;;;;21.93;21.38;97191.41;10333271;28;20094;-61
2022/03/29 12:27:12;;;;;;;11.02;5.07;;;;;;;21.97;22.13;97188.53;10333370;28;20060;-61
2022/03/29 12:32:12;;;;;;;29.20;18.98;;;;;;;21.91;21.97;97193.28;10332460;28;20068;-61
2022/03/29 12:37:15;;;;;;;14.73;6.20;;;;;;;21.44;21.47;97173.84;10332464;28;20061;-61
2022/03/29 12:42:17;;;;;;;133.35;114.05;;;;;;;21.27;23.28;97173.91;10332170;28;20511;-61
2022/03/29 12:47:16;;;;;;;50.53;45.50;;;;;;;21.11;23.34;97172.03;10331915;28;20084;-61
2022/03/29 12:52:16;;;;;;;13.82;7.32;;;;;;;20.79;23.60;97176.34;10331784;28;20542;-61
2022/03/29 12:57:39;;;;;;;17.17;8.43;;;;;;;20.52;23.96;97162.78;10331436;28;20059;-61
2022/03/29 13:02:43;;;;;;;21.27;8.48;;;;;;;20.45;24.08;97156.13;10330883;28;20444;-61
2022/03/29 13:07:49;;;;;;;19.98;7.78;;;;;;;20.52;23.62;97160.16;10327293;28;20052;-61
2022/03/29 13:12:54;;;;;;;41.53;33.72;;;;;;;20.59;23.30;97158.91;10290960;28;20061;-61
2022/03/29 13:17:53;;;;;;;27.02;16.17;;;;;;;20.73;23.92;97138.88;10290171;28;20092;-61
2022/03/29 13:22:52;;;;;;;23.10;13.27;;;;;;;19.99;23.88;96997.72;10290558;28;20038;-62
2022/03/29 13:27:51;;;;;;;16.35;10.23;;;;;;;20.62;23.35;97116.56;10290416;28;20080;-61
2022/03/29 13:32:52;;;;;;;20.05;16.30;;;;;;;20.58;23.30;97120.28;10290520;28;20105;-61
2022/03/29 13:37:51;;;;;;;17.90;9.32;;;;;;;20.47;24.13;97115.59;10289899;28;20061;-61
2022/03/29 13:42:50;;;;;;;21.17;9.88;;;;;;;20.45;24.62;97114.81;10291558;28;20069;-61
2022/03/29 13:47:49;;;;;;;20.10;7.03;;;;;;;20.32;25.07;97104.94;10298250;28;20125;-62
2022/03/29 13:52:49;;;;;;;25.95;14.35;;;;;;;20.08;25.16;97090.28;10298098;28;20044;-62
2022/03/29 13:57:48;;;;;;;27.38;12.32;;;;;;;19.89;24.87;97099.19;10297718;28;20064;-61
2022/03/29 14:02:47;;;;;;;31.88;14.02;;;;;;;19.55;24.89;97091.06;10298730;28;20030;-61
2022/03/29 14:07:46;;;;;;;12.95;6.53;;;;;;;19.08;24.33;97093.31;10301077;28;20120;-62
2022/03/29 14:12:45;;;;;;;14.73;8.15;;;;;;;17.57;27.83;97076.03;10300918;28;20061;-62
2022/03/29 14:17:46;;;;;;;13.40;6.80;;;;;;;17.24;30.37;97109.66;10300656;28;20064;-62
2022/03/29 14:22:45;;;;;;;17.83;11.93;;;;;;;17.08;31.71;97130.38;10300740;28;20478;-61
2022/03/29 14:27:44;;;;;;;17.88;10.02;;;;;;;16.93;32.00;97145.75;10300438;28;20057;-62
2022/03/29 14:32:43;;;;;;;13.00;7.45;;;;;;;16.84;32.09;97137.34;10309066;28;20067;-62
2022/03/29 14:37:42;;;;;;;;;;;;;;;16.97;32.32;97133.38;10322299;28;20029;-62
2022/03/29 14:42:41;;;;;;;24.25;16.50;;;;;;;17.09;31.88;97139.94;10321600;28;19916;-62
2022/03/29 14:47:41;;;;;;;20.70;12.98;;;;;;;17.25;31.77;97127.97;10339939;28;20069;-61
2022/03/29 14:52:42;;;;;;;25.13;21.13;;;;;;;17.27;31.84;97122.69;10339967;28;20423;-62
2022/03/29 14:57:41;;;;;;;22.00;8.98;;;;;;;17.37;32.14;97117.94;10339451;28;20459;-62
2022/03/29 15:02:41;;;;;;;15.30;9.45;;;;;;;17.43;31.79;97110.69;10338323;28;20056;-61
2022/03/29 15:07:39;;;;;;;24.88;17.08;;;;;;;17.42;31.87;97092.38;10335760;28;20068;-62
2022/03/29 15:12:38;;;;;;;;;;;;;;;17.52;31.99;97098.97;10336381;28;20034;-61
2022/03/29 15:17:37;;;;;;;16.00;9.10;;;;;;;17.59;31.95;97099.56;10335473;28;19927;-61
2022/03/29 15:22:37;;;;;;;28.88;8.77;;;;;;;17.68;30.85;97094.84;10334811;28;20061;-62
2022/03/29 15:27:36;;;;;;;16.00;8.40;;;;;;;17.75;31.05;97101.53;10335218;28;20069;-61
2022/03/29 15:32:36;;;;;;;12.55;7.93;;;;;;;17.76;31.27;97092.78;10333634;28;20069;-62
2022/03/29 15:37:37;;;;;;;20.05;14.10;;;;;;;17.69;31.19;97087.81;10334601;28;20072;-62
2022/03/29 15:42:37;;;;;;;16.77;9.35;;;;;;;17.56;31.62;97090.06;10334291;28;20068;-61
2022/03/29 15:47:36;;;;;;;18.13;9.40;;;;;;;17.40;31.81;97075.84;10334258;28;20084;-62
2022/03/29 15:52:35;;;;;;;;;;;;;;;17.28;32.26;97079.78;10334584;28;20037;-62
2022/03/29 15:57:33;;;;;;;18.30;8.23;;;;;;;17.11;32.57;97085.69;10333710;28;20338;-62
2022/03/29 16:02:32;;;;;;;;;;;;;;;16.96;32.57;97076.66;10334359;28;20037;-62
2022/03/29 16:07:32;;;;;;;17.80;13.43;;;;;;;16.74;32.80;97084.41;10333227;28;19939;-62
2022/03/29 16:12:33;;;;;;;22.83;11.68;;;;;;;16.64;32.93;97096.97;10334144;28;20065;-62
2022/03/29 16:17:32;;;;;;;30.45;9.20;;;;;;;16.38;33.51;97099.66;10332883;28;20057;-62
2022/03/29 16:22:31;;;;;;;;;;;;;;;16.23;33.58;97098.41;10334456;28;20051;-62
2022/03/29 16:27:31;;;;;;;17.90;9.57;;;;;;;16.06;33.62;97099.84;10333174;28;19909;-62
2022/03/29 16:32:30;;;;;;;22.45;10.18;;;;;;;15.93;33.96;97106.41;10333175;28;20467;-62
2022/03/29 16:37:30;;;;;;;;;;;;;;;15.64;34.70;97099.44;10332685;28;20088;-62
2022/03/29 16:42:29;;;;;;;16.90;8.33;;;;;;;15.38;34.73;97090.66;10332376;28;19944;-62
2022/03/29 16:47:28;;;;;;;12.48;8.05;;;;;;;15.15;35.20;97095.72;10331863;28;20088;-62
2022/03/29 16:52:27;;;;;;;19.23;8.77;;;;;;;14.81;35.51;97074.06;10331827;28;20065;-62
2022/03/29 16:57:26;;;;;;;15.48;8.77;;;;;;;14.08;35.98;96982.13;10331682;28;20041;-62
2022/03/29 17:02:25;;;;;;;15.88;9.38;;;;;;;14.40;36.17;97070.84;10332420;28;20064;-62
2022/03/29 17:07:24;;;;;;;20.02;10.43;;;;;;;14.23;36.18;97066.97;10335280;28;20040;-62
2022/03/29 17:12:23;;;;;;;;;;;;;;;14.34;36.45;97102.31;10330864;28;20471;-62
2022/03/29 17:17:22;;;;;;;23.05;11.70;;;;;;;14.22;36.42;97105.25;10329885;28;20399;-62
2022/03/29 17:22:23;;;;;;;21.30;13.02;;;;;;;14.10;36.86;97102.94;10330785;28;20415;-62
2022/03/29 17:27:23;;;;;;;30.23;18.00;;;;;;;13.95;36.95;97099.81;10333334;28;20069;-62
2022/03/29 17:32:21;;;;;;;38.58;23.05;;;;;;;13.65;38.10;97098.81;10334511;28;20060;-61
2022/03/29 17:37:21;;;;;;;37.78;23.42;;;;;;;13.17;38.53;97053.91;10333969;28;20029;-62
2022/03/29 17:42:20;;;;;;;29.98;19.25;;;;;;;12.63;39.45;97011.66;10333165;28;20503;-61
2022/03/29 17:47:19;;;;;;;45.90;31.50;;;;;;;12.92;39.79;97089.13;10334677;28;20424;-62
2022/03/29 17:52:18;;;;;;;49.33;30.55;;;;;;;12.34;40.17;97016.59;10327680;28;20073;-61
2022/03/29 17:57:17;;;;;;;235.25;121.40;;;;;;;12.81;40.24;97122.34;10333019;28;20043;-61
2022/03/29 18:02:17;;;;;;;51.53;30.20;;;;;;;12.65;40.59;97126.13;10333629;28;20065;-61
2022/03/29 18:07:18;;;;;;;45.22;26.77;;;;;;;12.50;40.55;97133.34;10330812;28;20569;-61
2022/03/29 18:12:17;;;;;;;46.15;29.55;;;;;;;12.06;40.89;97082.09;10327946;28;20069;-61
2022/03/29 18:17:16;;;;;;;47.05;26.38;;;;;;;11.90;41.71;97091.91;10330002;28;20450;-62
2022/03/29 18:22:15;;;;;;;54.47;32.83;;;;;;;12.01;42.25;97143.72;10330174;28;20119;-61
2022/03/29 18:27:14;;;;;;;45.58;27.73;;;;;;;11.84;42.88;97146.59;10329537;28;20060;-62
2022/03/29 18:32:14;;;;;;;42.03;26.70;;;;;;;11.73;42.67;97144.16;10336063;28;20025;-61
2022/03/29 18:37:13;;;;;;;41.05;22.92;;;;;;;11.65;43.05;97161.63;10337009;28;20064;-61
2022/03/29 18:42:14;;;;;;;56.72;23.23;;;;;;;11.50;43.03;97161.84;10336356;28;20080;-61
2022/03/29 18:47:13;;;;;;;36.05;22.00;;;;;;;11.39;43.89;97162.00;10336208;28;20077;-61
2022/03/29 18:52:14;;;;;;;34.33;22.15;;;;;;;11.16;45.26;97141.53;10336652;28;20030;-61
2022/03/29 18:57:13;;;;;;;43.90;21.83;;;;;;;10.76;44.52;97095.28;10335876;28;20064;-61
2022/03/29 19:02:12;;;;;;;46.22;24.77;;;;;;;11.02;45.42;97145.16;10335881;28;20033;-61
2022/03/29 19:07:11;;;;;;;;;;;;;;;10.92;44.67;97156.53;10336756;28;20068;-61
2022/03/29 19:12:13;;;;;;;35.35;22.25;;;;;;;10.02;45.51;97033.00;10334712;28;20370;-61
2022/03/29 19:17:12;;;;;;;35.60;20.75;;;;;;;10.32;45.75;97099.22;10335535;28;20104;-61
2022/03/29 19:22:11;;;;;;;32.88;20.45;;;;;;;10.54;46.32;97152.63;10335657;28;20073;-61
2022/03/29 19:27:10;;;;;;;37.95;22.77;;;;;;;10.48;46.59;97162.19;10334551;28;20037;-61
2022/03/29 19:32:10;;;;;;;57.85;31.58;;;;;;;10.31;46.51;97141.63;10336949;28;20057;-61
2022/03/29 19:37:09;;;;;;;37.35;24.60;;;;;;;10.33;46.40;97158.88;10328651;28;20594;-61
2022/03/29 19:42:24;;;;;;;53.28;32.75;;;;;;;10.28;46.65;97146.81;10333087;28;20068;-61
2022/03/29 19:47:27;;;;;;;54.47;32.17;;;;;;;10.10;47.49;97140.09;10334949;28;20077;-61
2022/03/29 19:52:26;;;;;;;41.28;24.73;;;;;;;9.97;47.94;97140.16;10334273;28;20061;-61
2022/03/29 19:57:26;;;;;;;46.47;28.13;;;;;;;9.88;47.79;97139.38;10333295;28;20450;-61
2022/03/29 20:02:26;;;;;;;51.08;32.00;;;;;;;9.47;47.70;97070.66;10333301;28;20075;-61
2022/03/29 20:07:28;;;;;;;53.50;30.63;;;;;;;9.79;48.45;97153.28;10321786;28;20131;-61
2022/03/29 20:12:27;;;;;;;47.22;28.95;;;;;;;9.67;48.82;97161.13;10332699;28;20053;-61
2022/03/29 20:17:26;;;;;;;41.30;26.58;;;;;;;9.58;49.07;97151.69;10332764;28;20061;-61
2022/03/29 20:22:26;;;;;;;68.20;40.45;;;;;;;9.54;49.31;97160.38;10333118;28;20116;-61
2022/03/29 20:27:25;;;;;;;34.08;19.10;;;;;;;9.41;49.28;97154.41;10332621;28;20061;-61
2022/03/29 20:32:25;;;;;;;70.72;41.33;;;;;;;9.30;49.77;97141.53;10330081;28;20464;-61
2022/03/29 20:37:24;;;;;;;34.38;23.95;;;;;;;9.42;49.19;97161.31;10292544;28;20069;-61
2022/03/29 20:42:23;;;;;;;44.55;29.60;;;;;;;9.41;49.36;97158.72;10291377;28;20061;-61
2022/03/29 20:47:22;;;;;;;36.35;22.40;;;;;;;9.13;49.74;97120.84;10291072;28;20054;-61
2022/03/29 20:52:20;;;;;;;38.05;22.50;;;;;;;9.28;49.84;97144.97;10291495;28;20044;-61
2022/03/29 20:57:19;;;;;;;33.10;20.17;;;;;;;9.15;50.21;97138.97;10290428;28;20435;-61
2022/03/29 21:02:18;;;;;;;32.35;18.95;;;;;;;9.19;50.29;97148.47;10290701;28;20026;-61
2022/03/29 21:07:17;;;;;;;35.35;20.08;;;;;;;9.10;50.26;97138.16;10291273;28;20030;-61
2022/03/29 21:12:16;;;;;;;31.48;19.15;;;;;;;9.10;50.29;97143.31;10319093;28;20075;-61
2022/03/29 21:17:15;;;;;;;28.63;17.20;;;;;;;8.84;50.93;97115.00;10330829;28;20040;-61
2022/03/29 21:22:15;;;;;;;30.50;18.33;;;;;;;8.99;50.90;97134.75;10331195;28;20120;-61
2022/03/29 21:27:14;;;;;;;25.90;16.13;;;;;;;8.87;51.31;97146.88;10330598;28;20368;-61
2022/03/29 21:32:13;;;;;;;26.80;17.05;;;;;;;8.89;51.50;97134.78;10305249;28;20069;-61
2022/03/29 21:37:12;;;;;;;30.02;19.63;;;;;;;8.68;51.46;97102.09;10290329;28;20069;-61
2022/03/29 21:42:11;;;;;;;30.70;21.05;;;;;;;8.55;51.71;97095.25;10289978;28;20125;-61
2022/03/29 21:47:10;;;;;;;32.20;20.52;;;;;;;8.67;51.84;97123.69;10289764;28;20124;-61
2022/03/29 21:52:09;;;;;;;36.40;24.40;;;;;;;8.41;51.60;97086.69;10289587;28;20061;-61
2022/03/29 21:57:08;;;;;;;30.85;19.05;;;;;;;8.60;51.70;97121.09;10290198;28;20064;-61
2022/03/29 22:02:07;;;;;;;31.90;19.33;;;;;;;8.26;52.24;97070.38;10322051;28;20124;-61
2022/03/29 22:07:07;;;;;;;31.30;18.83;;;;;;;8.33;52.63;97102.22;10339193;28;20059;-61
2022/03/29 22:12:06;;;;;;;64.82;34.15;;;;;;;8.44;52.35;97116.00;10337512;28;20061;-61
2022/03/29 22:17:05;;;;;;;;;;;;;;;8.32;52.83;97116.03;10339696;28;20068;-61
2022/03/29 22:22:05;;;;;;;40.20;22.23;;;;;;;8.24;53.32;97110.84;10340119;28;19952;-61
2022/03/29 22:27:04;;;;;;;43.47;22.08;;;;;;;7.89;53.67;97064.41;10340526;28;20017;-61
2022/03/29 22:32:04;;;;;;;42.72;23.45;;;;;;;8.14;53.91;97126.41;10340317;28;20431;-61
2022/03/29 22:37:03;;;;;;;36.75;22.00;;;;;;;8.13;53.61;97117.78;10339894;28;20440;-61
2022/03/29 22:42:02;;;;;;;120.50;59.30;;;;;;;7.63;53.95;97042.06;10339904;28;20068;-61
2022/03/29 22:47:01;;;;;;;41.90;24.73;;;;;;;8.05;54.10;97104.88;10339812;28;20553;-61
2022/03/29 22:52:00;;;;;;;39.58;23.40;;;;;;;8.01;54.46;97108.34;10339439;28;20499;-61
2022/03/29 22:57:15;;;;;;;34.28;23.00;;;;;;;7.94;55.15;97113.50;10339447;28;20474;-61
2022/03/29 23:02:15;;;;;;;34.28;21.98;;;;;;;7.84;54.89;97122.97;10320892;28;20061;-61
2022/03/29 23:07:14;;;;;;;34.15;21.60;;;;;;;7.68;55.07;97103.19;10322477;28;20526;-61
2022/03/29 23:12:13;;;;;;;35.67;20.60;;;;;;;7.37;55.66;97074.75;10335070;28;20507;-61
2022/03/29 23:17:12;;;;;;;29.88;19.58;;;;;;;7.22;55.57;97052.38;10333560;28;20557;-61